Ana Sayfa
METAR-TAF:

METAR-TAF

Havaalanları :

Curaçao, Hollanda Antilleri

Enlem: 12-12N, Boylam: 068-58W, yükseklik: 9 m

Güncel hava durumu gözlemi

Rapor saat 01:00 UTC de 34 dakika önce yapıldı.
Rüzgar doğu/güneydoğudan 15 kt
Sıcaklık 26°C
Nem 79%
Basınç 1014 hPa
Görüş mesafesi 10 km veya daha fazla
1800 ft yükseklikte az bulutlu

METAR: TNCC 200100Z 11015KT 9999 FEW018 26/22 Q1014 NOSIG

Saat: 21:34 (01:34 UTC)

Tahmin

Rapor saat 23:15 UTC de 2 saat ve 19 dakika önce yapıldı.
Ayın 20'si saat 00 UTC'den ayın 20'si saat 24 UTC'ye kadar geçerli Tahmin
Rüzgar doğu/güneydoğudan 12 kt
Görüş mesafesi 10 km veya daha fazla
2000 ft yükseklikte parçalı bulutlu
Olasılık 30% :
Geçici
ayın 20'si saat 06 UTC'den ayın 20'si saat 12 UTC'ye kadar
1400 ft yükseklikte parçalı çok bulutlu

TAF: TNCC 192315Z 2000/2024 11012KT 9999 SCT020 PROB30 TEMPO 2006/2012018 BKN014

4.000'den fazla havaalanı için hava durumu gözlemleri ve tahminleri (METAR ve TAF raporları).

Kullanılabilir istasyonlar harita üzerinde sarı ve kırmızı noktalarla gösterilir.

İstasyonun adını görmek için fareyi noktanın üzerinde gezdirin.

Sonrasında hava gözlem ve tahminlerini görmek için tıklayın.

Haritayı değiştirmek için: yaklaştırmak için siyah artı işaretli yeşil düğmeye ve uzaklaştırmak için de eksi işaretli düğmeye hızla tıklayın; bitişik haritalar için yeşil okları kullanın.


METAR-TAF: